Rechercher aéroport 
image banner adimage banner ad
image banner ad

DAUZ - Zarzaitine / In Amenas

Situé à Zarzaitine, Algeria

ICAO - DAUZ, IATA - IAM

Données fournies par Airmate  

Information générale

Coordonnées: N28°3'5" E9°38'34"
Élévation : 1843 feet MSL.
 
Voir autres Aéroports à Illizi Province

Données opérationnelles

Accessible au public
Heure actuelle UTC:
Heure actuelle locale:
Météo
METAR: DAUZ 290100Z 06007KT CAVOK 25/M04 Q1016
TAF: TAF DAUZ 282300Z 2900/2924 VRB02KT 9999 FEW046 BECMG 2906/2909 15010KT
Voir NOTAMs / SUP AIP / TFR affectant cet aéroport [VIEW]
Fréquences de communication: [VIEW]

Pistes:

Identifiant RWYQFULongueur (ft)Largeur (ft)SurfaceLDA (ft)
0547°9843148ASP
23227°9843148
14145°721898
32325°721898

Coordonnées de l'aéroport

Adresse: Zarzaitine Algeria

Vue satellite de DAUZ